Terminal Aerodrome Forecast
Issued by NWS Lubbock, TX

Home | Current Version | Previous Version | Text Only | Print | Product List | Glossary On
Versions: 1 2 3 4 5 6 7 8 9 10 11 12 13 14 15
000
FTUS44 KLUB 292149 AAA
TAFLBB
TAF AMD
KLBB 292149Z 2922/3018 18015G25KT P6SM BKN035
      TEMPO 2923/3003 VRB20G40KT TSRA BKN045CB
     FM300300 08013KT P6SM SCT010 BKN035=

USA.gov is the U.S. government's official web portal to all federal, state and local government web resources and services.